Time;durP1;ratioP1;P1;durP2;ratioP2;P2;SDS_P1;SDS_P2;PMS_P1;PMS_P2;Temp;Humidity;BMP_temperature;BMP_pressure;BME280_temperature;BME280_humidity;BME280_pressure;Samples;Min_cycle;Max_cycle;Signal;HPM_P1;HPM_P2
2023/10/05 00:01:56;;;;;;;6.63;2.20;;;;;;;;;;5072554;28;20196;-84
2023/10/05 00:04:26;;;;;;;3.83;1.90;;;;;;;;;;5073017;28;20197;-84
2023/10/05 00:06:57;;;;;;;7.33;3.43;;;;;;;;;;5071800;28;20296;-84
2023/10/05 00:09:26;;;;;;;4.20;1.83;;;;;;;;;;5072310;28;20210;-84
2023/10/05 00:11:55;;;;;;;7.53;2.30;;;;;;;;;;5072201;28;20198;-84
2023/10/05 00:14:25;;;;;;;3.00;1.83;;;;;;;;;;5072242;28;20189;-84
2023/10/05 00:16:55;;;;;;;1.30;1.20;;;;;;;;;;5071351;28;20251;-84
2023/10/05 00:19:27;;;;;;;6.70;1.63;;;;;;;;;;5072235;28;20232;-84
2023/10/05 00:21:57;;;;;;;6.63;2.43;;;;;;;;;;5071970;28;20260;-84
2023/10/05 00:24:29;;;;;;;3.83;1.87;;;;;;;;;;5071951;28;20269;-84
2023/10/05 00:26:58;;;;;;;3.27;1.70;;;;;;;;;;5071456;28;20292;-84
2023/10/05 00:29:29;;;;;;;1.90;1.23;;;;;;;;;;5071974;28;20221;-85
2023/10/05 00:32:00;;;;;;;3.50;1.40;;;;;;;;;;5071964;28;20297;-84
2023/10/05 00:34:30;;;;;;;2.67;1.70;;;;;;;;;;5071772;28;20198;-85
2023/10/05 00:37:00;;;;;;;10.63;3.53;;;;;;;;;;5071590;28;20211;-84
2023/10/05 00:39:31;;;;;;;3.73;1.63;;;;;;;;;;5072388;28;20226;-84
2023/10/05 00:42:07;;;;;;;5.13;2.13;;;;;;;;;;5072022;28;20197;-84
2023/10/05 00:44:36;;;;;;;2.47;1.30;;;;;;;;;;5071138;28;20204;-84
2023/10/05 00:47:06;;;;;;;7.20;2.07;;;;;;;;;;5071760;28;20197;-84
2023/10/05 00:49:45;;;;;;;4.83;1.80;;;;;;;;;;5071550;28;20218;-83
2023/10/05 00:52:15;;;;;;;8.20;2.67;;;;;;;;;;5071184;28;20297;-84
2023/10/05 00:54:48;;;;;;;5.13;2.00;;;;;;;;;;5070800;28;20222;-84
2023/10/05 00:57:19;;;;;;;8.83;4.70;;;;;;;;;;5071822;28;20232;-84
2023/10/05 00:59:57;;;;;;;5.93;2.17;;;;;;;;;;5071577;28;20202;-84
2023/10/05 01:02:30;;;;;;;9.93;2.90;;;;;;;;;;5071282;28;20215;-85
2023/10/05 01:05:09;;;;;;;5.47;1.90;;;;;;;;;;5070770;28;20201;-84
2023/10/05 01:07:55;;;;;;;6.00;2.60;;;;;;;;;;5071632;28;20202;-84
2023/10/05 01:10:41;;;;;;;4.63;1.97;;;;;;;;;;5071796;28;20225;-84
2023/10/05 01:13:28;;;;;;;5.23;2.37;;;;;;;;;;5070901;28;20206;-84
2023/10/05 01:15:57;;;;;;;3.23;2.00;;;;;;;;;;5071420;28;20198;-84
2023/10/05 01:18:27;;;;;;;13.70;3.47;;;;;;;;;;5071165;28;20213;-85
2023/10/05 01:20:57;;;;;;;7.97;1.60;;;;;;;;;;5070922;28;20264;-84
2023/10/05 01:23:38;;;;;;;1.90;1.50;;;;;;;;;;5070194;28;20233;-84
2023/10/05 01:26:12;;;;;;;2.57;1.83;;;;;;;;;;5071483;28;20197;-84
2023/10/05 01:28:41;;;;;;;4.43;1.80;;;;;;;;;;5071073;28;20284;-84
2023/10/05 01:31:16;;;;;;;2.47;1.40;;;;;;;;;;5070714;28;20220;-84
2023/10/05 01:33:46;;;;;;;9.53;2.00;;;;;;;;;;5070881;28;20203;-85
2023/10/05 01:36:17;;;;;;;3.83;2.13;;;;;;;;;;5071343;28;20205;-84
2023/10/05 01:38:48;;;;;;;7.00;3.73;;;;;;;;;;5071430;28;20253;-84
2023/10/05 01:41:21;;;;;;;6.97;2.97;;;;;;;;;;5070190;28;20201;-84
2023/10/05 01:43:50;;;;;;;2.83;1.33;;;;;;;;;;5070427;28;20223;-84
2023/10/05 01:46:18;;;;;;;2.13;1.23;;;;;;;;;;5071489;28;20200;-84
2023/10/05 01:48:47;;;;;;;13.57;1.73;;;;;;;;;;5071384;28;20251;-84
2023/10/05 01:51:23;;;;;;;4.93;2.47;;;;;;;;;;5070051;28;20214;-84
2023/10/05 01:53:59;;;;;;;4.30;1.23;;;;;;;;;;5071252;28;20205;-84
2023/10/05 01:56:29;;;;;;;10.67;3.30;;;;;;;;;;5070663;28;20236;-84
2023/10/05 01:59:00;;;;;;;6.77;2.57;;;;;;;;;;5070724;28;20516;-84
2023/10/05 02:01:29;;;;;;;7.97;2.40;;;;;;;;;;5070134;28;20201;-84
2023/10/05 02:03:59;;;;;;;3.80;1.97;;;;;;;;;;5071140;28;20204;-84
2023/10/05 02:06:29;;;;;;;7.27;3.37;;;;;;;;;;5070898;28;20204;-83
2023/10/05 02:08:59;;;;;;;3.17;2.53;;;;;;;;;;5069973;28;20201;-84
2023/10/05 02:11:28;;;;;;;13.27;3.00;;;;;;;;;;5070210;28;20221;-84
2023/10/05 02:14:03;;;;;;;2.53;1.33;;;;;;;;;;5071109;28;20296;-84
2023/10/05 02:16:33;;;;;;;4.27;2.10;;;;;;;;;;5074729;28;20206;-84
2023/10/05 02:19:03;;;;;;;3.53;1.77;;;;;;;;;;5073639;28;20224;-84
2023/10/05 02:21:36;;;;;;;7.20;2.37;;;;;;;;;;5073928;28;20275;-84
2023/10/05 02:24:12;;;;;;;5.30;2.50;;;;;;;;;;5074569;28;20203;-84
2023/10/05 02:27:08;;;;;;;2.43;1.43;;;;;;;;;;5074431;28;20233;-84
2023/10/05 02:29:34;;;;;;;5.47;3.07;;;;;;;;;;5073639;28;20209;-84
2023/10/05 02:32:05;;;;;;;2.23;1.60;;;;;;;;;;5074369;28;20229;-84
2023/10/05 02:34:41;;;;;;;8.70;1.40;;;;;;;;;;5074144;28;20269;-84
2023/10/05 02:37:12;;;;;;;7.53;2.57;;;;;;;;;;5073483;28;20215;-84
2023/10/05 02:39:42;;;;;;;1.83;1.00;;;;;;;;;;5073554;28;20209;-84
2023/10/05 02:42:14;;;;;;;3.00;2.00;;;;;;;;;;5073964;28;20197;-84
2023/10/05 02:44:44;;;;;;;3.23;1.47;;;;;;;;;;5074325;28;20296;-84
2023/10/05 02:47:14;;;;;;;4.67;2.43;;;;;;;;;;5073566;28;20200;-85
2023/10/05 02:49:44;;;;;;;5.63;1.93;;;;;;;;;;5073531;28;20190;-84
2023/10/05 02:52:15;;;;;;;2.83;1.83;;;;;;;;;;5073749;28;20288;-84
2023/10/05 02:54:47;;;;;;;4.13;1.03;;;;;;;;;;5073600;28;20190;-84
2023/10/05 02:57:17;;;;;;;6.73;1.83;;;;;;;;;;5072776;28;20230;-84
2023/10/05 02:59:46;;;;;;;1.37;1.03;;;;;;;;;;5073662;28;20193;-84
2023/10/05 03:02:16;;;;;;;3.67;1.67;;;;;;;;;;5073519;28;20265;-84
2023/10/05 03:04:46;;;;;;;5.53;2.30;;;;;;;;;;5073370;28;20198;-84
2023/10/05 03:07:17;;;;;;;7.30;2.43;;;;;;;;;;5073214;28;20216;-84
2023/10/05 03:09:49;;;;;;;9.03;2.40;;;;;;;;;;5073938;28;20219;-84
2023/10/05 03:12:20;;;;;;;9.13;1.90;;;;;;;;;;5073169;28;20208;-84
2023/10/05 03:14:51;;;;;;;5.20;2.13;;;;;;;;;;5073271;28;20201;-84
2023/10/05 03:17:21;;;;;;;6.27;1.77;;;;;;;;;;5072656;28;20228;-84
2023/10/05 03:19:51;;;;;;;4.80;2.20;;;;;;;;;;5073438;28;20341;-84
2023/10/05 03:22:23;;;;;;;12.77;2.10;;;;;;;;;;5072998;28;20248;-84
2023/10/05 03:24:56;;;;;;;4.27;1.40;;;;;;;;;;5072734;28;20227;-84
2023/10/05 03:27:25;;;;;;;5.20;2.43;;;;;;;;;;5072280;28;20237;-84
2023/10/05 03:30:00;;;;;;;6.50;2.10;;;;;;;;;;5073700;28;20211;-84
2023/10/05 03:32:30;;;;;;;8.10;1.53;;;;;;;;;;5072890;28;20234;-85
2023/10/05 03:34:59;;;;;;;3.63;1.30;;;;;;;;;;5072181;28;20208;-84
2023/10/05 03:37:29;;;;;;;17.03;2.47;;;;;;;;;;5073228;28;20219;-84
2023/10/05 03:40:07;;;;;;;4.00;2.73;;;;;;;;;;5073328;28;20204;-84
2023/10/05 03:42:36;;;;;;;10.67;2.83;;;;;;;;;;5072578;28;20201;-84
2023/10/05 03:45:09;;;;;;;3.20;2.00;;;;;;;;;;5072574;28;20209;-84
2023/10/05 03:47:38;;;;;;;2.20;2.07;;;;;;;;;;5073247;28;20197;-84
2023/10/05 03:50:07;;;;;;;5.70;2.20;;;;;;;;;;5072587;28;20267;-83
2023/10/05 03:52:36;;;;;;;5.67;2.43;;;;;;;;;;5071945;28;20220;-84
2023/10/05 03:55:09;;;;;;;4.97;1.50;;;;;;;;;;5072134;28;20202;-84
2023/10/05 03:57:38;;;;;;;7.53;3.30;;;;;;;;;;5072622;28;20197;-84
2023/10/05 04:00:22;;;;;;;4.17;1.80;;;;;;;;;;5072744;28;20219;-84
2023/10/05 04:02:52;;;;;;;7.33;2.73;;;;;;;;;;5071570;28;20210;-84
2023/10/05 04:05:23;;;;;;;4.77;1.40;;;;;;;;;;5072459;28;20209;-83
2023/10/05 04:07:52;;;;;;;1.97;1.37;;;;;;;;;;5072237;28;20204;-84
2023/10/05 04:10:34;;;;;;;7.03;2.40;;;;;;;;;;5072497;28;20204;-84
2023/10/05 04:13:04;;;;;;;3.87;1.00;;;;;;;;;;5072010;28;20205;-84
2023/10/05 04:15:33;;;;;;;7.07;2.33;;;;;;;;;;5073032;28;20194;-84
2023/10/05 04:18:02;;;;;;;3.03;0.90;;;;;;;;;;5072422;28;20377;-84
2023/10/05 04:20:30;;;;;;;3.33;1.17;;;;;;;;;;5071544;28;20254;-84
2023/10/05 04:23:01;;;;;;;6.60;2.10;;;;;;;;;;5071445;28;20229;-84
2023/10/05 04:25:31;;;;;;;3.07;1.80;;;;;;;;;;5072355;28;20289;-84
2023/10/05 04:28:00;;;;;;;4.67;1.60;;;;;;;;;;5072335;28;20215;-84
2023/10/05 04:30:29;;;;;;;5.87;2.50;;;;;;;;;;5071503;28;20195;-84
2023/10/05 04:32:58;;;;;;;8.40;1.53;;;;;;;;;;5071317;28;20236;-83
2023/10/05 04:35:27;;;;;;;3.60;1.93;;;;;;;;;;5072509;28;20240;-84
2023/10/05 04:37:56;;;;;;;5.83;2.17;;;;;;;;;;5072085;28;20229;-84
2023/10/05 04:40:26;;;;;;;4.80;2.10;;;;;;;;;;5071455;28;20202;-85
2023/10/05 04:42:58;;;;;;;4.27;2.20;;;;;;;;;;5072027;28;20200;-84
2023/10/05 04:45:28;;;;;;;4.90;2.00;;;;;;;;;;5072063;28;20282;-84
2023/10/05 04:47:58;;;;;;;3.90;1.50;;;;;;;;;;5072084;28;20201;-85
2023/10/05 04:50:28;;;;;;;8.47;2.97;;;;;;;;;;5070454;28;20205;-84
2023/10/05 04:53:00;;;;;;;5.20;1.80;;;;;;;;;;5071321;28;20224;-84
2023/10/05 04:55:32;;;;;;;4.43;1.83;;;;;;;;;;5072217;28;20200;-84
2023/10/05 04:58:21;;;;;;;7.47;2.37;;;;;;;;;;5070791;28;20193;-84
2023/10/05 05:00:54;;;;;;;3.13;1.90;;;;;;;;;;5071060;28;20276;-84
2023/10/05 05:03:48;;;;;;;6.63;2.03;;;;;;;;;;5071800;28;20232;-84
2023/10/05 05:06:17;;;;;;;13.13;2.63;;;;;;;;;;5071305;28;20192;-84
2023/10/05 05:08:46;;;;;;;1.83;0.90;;;;;;;;;;5070605;28;20211;-85
2023/10/05 05:11:19;;;;;;;6.73;2.20;;;;;;;;;;5071125;28;20230;-84
2023/10/05 05:13:49;;;;;;;3.00;1.87;;;;;;;;;;5071065;28;20240;-85
2023/10/05 05:16:19;;;;;;;2.37;1.23;;;;;;;;;;5070900;28;20280;-85
2023/10/05 05:18:47;;;;;;;6.03;2.90;;;;;;;;;;5070274;28;20318;-84
2023/10/05 05:21:16;;;;;;;8.07;2.47;;;;;;;;;;5070568;28;20234;-84
2023/10/05 05:23:47;;;;;;;4.63;1.90;;;;;;;;;;5070491;28;20262;-84
2023/10/05 05:26:15;;;;;;;2.03;1.63;;;;;;;;;;5071136;28;20196;-84
2023/10/05 05:28:44;;;;;;;2.80;1.70;;;;;;;;;;5071348;28;20197;-84
2023/10/05 05:31:16;;;;;;;3.10;1.60;;;;;;;;;;5071817;28;20202;-84
2023/10/05 05:33:46;;;;;;;5.23;1.87;;;;;;;;;;5071452;28;20298;-84
2023/10/05 05:36:16;;;;;;;3.00;1.50;;;;;;;;;;5071863;28;20229;-83
2023/10/05 05:38:49;;;;;;;4.70;2.57;;;;;;;;;;5071575;28;20209;-83
2023/10/05 05:41:19;;;;;;;7.23;2.73;;;;;;;;;;5071608;28;20508;-84
2023/10/05 05:43:49;;;;;;;7.47;2.87;;;;;;;;;;5072220;28;20196;-84
2023/10/05 05:46:19;;;;;;;1.20;1.10;;;;;;;;;;5071814;28;20240;-84
2023/10/05 05:48:52;;;;;;;0.70;0.70;;;;;;;;;;5071858;28;20296;-84
2023/10/05 05:51:24;;;;;;;1.27;1.00;;;;;;;;;;5075401;28;20203;-84
2023/10/05 05:53:52;;;;;;;8.17;1.60;;;;;;;;;;5076043;28;20256;-81
2023/10/05 05:56:28;;;;;;;7.67;1.97;;;;;;;;;;5075915;28;20206;-82
2023/10/05 05:59:00;;;;;;;1.90;1.20;;;;;;;;;;5076123;28;20209;-82
2023/10/05 06:01:35;;;;;;;0.57;0.57;;;;;;;;;;5076001;28;20217;-83
2023/10/05 06:04:04;;;;;;;4.80;1.87;;;;;;;;;;5075726;28;20192;-83
2023/10/05 06:06:34;;;;;;;2.77;1.80;;;;;;;;;;5075941;28;20196;-83
2023/10/05 06:09:07;;;;;;;5.87;2.30;;;;;;;;;;5075835;28;20185;-83
2023/10/05 06:11:36;;;;;;;6.33;2.03;;;;;;;;;;5076478;28;20267;-84
2023/10/05 06:14:05;;;;;;;7.83;2.10;;;;;;;;;;5075103;28;20232;-84
2023/10/05 06:16:34;;;;;;;6.50;3.37;;;;;;;;;;5074711;28;20189;-85
2023/10/05 06:19:03;;;;;;;6.53;2.27;;;;;;;;;;5075886;28;20236;-85
2023/10/05 06:21:32;;;;;;;6.93;2.87;;;;;;;;;;5075769;28;20263;-85
2023/10/05 06:24:02;;;;;;;8.20;2.10;;;;;;;;;;5074894;28;20225;-85
2023/10/05 06:26:31;;;;;;;2.53;1.60;;;;;;;;;;5075617;28;20198;-84
2023/10/05 06:28:59;;;;;;;0.93;0.80;;;;;;;;;;5075221;28;20200;-83
2023/10/05 06:31:28;;;;;;;4.03;2.20;;;;;;;;;;5075194;28;20252;-84
2023/10/05 06:33:59;;;;;;;6.30;2.00;;;;;;;;;;5074956;28;20225;-84
2023/10/05 06:36:27;;;;;;;7.77;3.20;;;;;;;;;;5075408;28;20259;-84
2023/10/05 06:38:56;;;;;;;8.47;2.70;;;;;;;;;;5075868;28;20212;-84
2023/10/05 06:41:25;;;;;;;3.33;1.03;;;;;;;;;;5075478;28;20219;-84
2023/10/05 06:43:54;;;;;;;1.93;1.50;;;;;;;;;;5074812;28;20193;-83
2023/10/05 06:46:26;;;;;;;3.77;2.57;;;;;;;;;;5075504;28;20205;-84
2023/10/05 06:48:57;;;;;;;7.07;2.27;;;;;;;;;;5075216;28;20296;-84
2023/10/05 06:51:27;;;;;;;3.93;2.83;;;;;;;;;;5074158;28;20207;-84
2023/10/05 06:53:57;;;;;;;1.97;1.57;;;;;;;;;;5074359;28;20304;-85
2023/10/05 06:56:26;;;;;;;2.53;1.33;;;;;;;;;;5074268;28;20296;-85
2023/10/05 06:58:55;;;;;;;9.37;3.30;;;;;;;;;;5074451;28;20202;-84
2023/10/05 07:01:24;;;;;;;4.17;1.90;;;;;;;;;;5072623;28;20206;-84
2023/10/05 07:03:53;;;;;;;5.47;2.97;;;;;;;;;;5074043;28;20214;-84
2023/10/05 07:06:24;;;;;;;6.23;3.00;;;;;;;;;;5074650;28;20202;-84
2023/10/05 07:08:55;;;;;;;4.63;1.77;;;;;;;;;;5074362;28;20292;-84
2023/10/05 07:11:24;;;;;;;4.93;2.00;;;;;;;;;;5073470;28;20204;-83
2023/10/05 07:13:53;;;;;;;1.00;1.00;;;;;;;;;;5074187;28;20220;-83
2023/10/05 07:16:21;;;;;;;5.30;2.23;;;;;;;;;;5074086;28;20287;-83
2023/10/05 07:18:50;;;;;;;5.60;1.60;;;;;;;;;;5074034;28;20217;-84
2023/10/05 07:21:20;;;;;;;7.53;2.53;;;;;;;;;;5072982;28;20431;-84
2023/10/05 07:23:49;;;;;;;8.20;3.67;;;;;;;;;;5073493;28;20229;-84
2023/10/05 07:26:19;;;;;;;4.97;1.70;;;;;;;;;;5074275;28;20211;-83
2023/10/05 07:28:47;;;;;;;2.27;1.00;;;;;;;;;;5073534;28;20320;-84
2023/10/05 07:31:16;;;;;;;4.83;1.97;;;;;;;;;;5073215;28;20201;-84
2023/10/05 07:33:45;;;;;;;9.97;3.83;;;;;;;;;;5073708;28;20221;-83
2023/10/05 07:36:14;;;;;;;1.13;1.03;;;;;;;;;;5073652;28;20208;-84
2023/10/05 07:38:44;;;;;;;0.60;0.60;;;;;;;;;;5073400;28;20191;-84
2023/10/05 07:41:13;;;;;;;3.67;1.47;;;;;;;;;;5072896;28;20259;-84
2023/10/05 07:43:43;;;;;;;13.50;2.80;;;;;;;;;;5073396;28;20253;-83
2023/10/05 07:46:34;;;;;;;2.73;1.93;;;;;;;;;;5073551;28;20237;-82
2023/10/05 07:49:03;;;;;;;6.83;2.20;;;;;;;;;;5073510;28;20205;-84
2023/10/05 07:51:31;;;;;;;5.87;2.00;;;;;;;;;;5072750;28;20267;-83
2023/10/05 07:54:00;;;;;;;1.00;0.97;;;;;;;;;;5073254;28;20226;-83
2023/10/05 07:56:32;;;;;;;1.63;1.23;;;;;;;;;;5073591;28;20251;-83
2023/10/05 07:59:02;;;;;;;4.23;2.00;;;;;;;;;;5072975;28;20206;-82
2023/10/05 08:01:31;;;;;;;2.93;1.40;;;;;;;;;;5072605;28;20260;-82
2023/10/05 08:03:59;;;;;;;1.53;1.17;;;;;;;;;;5073499;28;20194;-82
2023/10/05 08:06:29;;;;;;;12.93;3.60;;;;;;;;;;5072999;28;20204;-83
2023/10/05 08:08:58;;;;;;;0.73;0.73;;;;;;;;;;5072609;28;20236;-82
2023/10/05 08:11:26;;;;;;;1.20;1.10;;;;;;;;;;5072883;28;20202;-83
2023/10/05 08:13:55;;;;;;;2.43;1.27;;;;;;;;;;5072791;28;20224;-82
2023/10/05 08:16:25;;;;;;;6.17;2.50;;;;;;;;;;5072846;28;20221;-82
2023/10/05 08:18:54;;;;;;;1.27;1.27;;;;;;;;;;5072898;28;20265;-82
2023/10/05 08:21:22;;;;;;;10.80;2.83;;;;;;;;;;5072830;28;20205;-83
2023/10/05 08:23:51;;;;;;;2.07;1.20;;;;;;;;;;5072714;28;20235;-81
2023/10/05 08:26:21;;;;;;;0.60;0.60;;;;;;;;;;5072207;28;20226;-81
2023/10/05 08:28:50;;;;;;;3.30;1.47;;;;;;;;;;5072763;28;20198;-82
2023/10/05 08:31:23;;;;;;;6.83;1.70;;;;;;;;;;5072812;28;20221;-83
2023/10/05 08:33:53;;;;;;;9.60;2.90;;;;;;;;;;5072738;28;20216;-84
2023/10/05 08:36:22;;;;;;;2.83;1.40;;;;;;;;;;5072211;28;20238;-83
2023/10/05 08:38:54;;;;;;;5.90;2.67;;;;;;;;;;5072646;28;20198;-84
2023/10/05 08:41:31;;;;;;;6.87;2.47;;;;;;;;;;5072785;28;20198;-83
2023/10/05 08:44:01;;;;;;;5.90;2.33;;;;;;;;;;5072613;28;20227;-83
2023/10/05 08:46:30;;;;;;;2.70;1.30;;;;;;;;;;5072248;28;20296;-83
2023/10/05 08:49:07;;;;;;;0.93;0.87;;;;;;;;;;5072547;28;20206;-83
2023/10/05 08:51:36;;;;;;;0.67;0.67;;;;;;;;;;5072431;28;20213;-84
2023/10/05 08:54:11;;;;;;;1.50;1.43;;;;;;;;;;5072150;28;20213;-83
2023/10/05 08:56:41;;;;;;;5.10;1.27;;;;;;;;;;5071999;28;20190;-84
2023/10/05 08:59:13;;;;;;;4.70;0.87;;;;;;;;;;5072454;28;20202;-83
2023/10/05 09:01:43;;;;;;;4.43;2.43;;;;;;;;;;5072232;28;20197;-84
2023/10/05 09:04:23;;;;;;;3.00;1.77;;;;;;;;;;5071419;28;20186;-83
2023/10/05 09:06:55;;;;;;;2.13;1.23;;;;;;;;;;5071885;28;20207;-84
2023/10/05 09:09:37;;;;;;;1.80;1.60;;;;;;;;;;5072050;28;20483;-83
2023/10/05 09:12:19;;;;;;;5.57;2.90;;;;;;;;;;5071721;28;20227;-84
2023/10/05 09:14:53;;;;;;;3.57;1.33;;;;;;;;;;5072022;28;20213;-83
2023/10/05 09:17:22;;;;;;;0.90;0.90;;;;;;;;;;5071405;28;20204;-83
2023/10/05 09:19:52;;;;;;;1.60;0.77;;;;;;;;;;5072783;28;20222;-83
2023/10/05 09:22:23;;;;;;;3.77;1.53;;;;;;;;;;5071786;28;20316;-83
2023/10/05 09:24:54;;;;;;;9.23;3.13;;;;;;;;;;5070965;28;20202;-83
2023/10/05 09:27:26;;;;;;;3.50;2.90;;;;;;;;;;5072209;28;20212;-82
2023/10/05 09:30:09;;;;;;;6.30;1.70;;;;;;;;;;5071767;28;20197;-83
2023/10/05 09:32:38;;;;;;;0.40;0.40;;;;;;;;;;5071248;28;20277;-83
2023/10/05 09:35:10;;;;;;;2.93;1.50;;;;;;;;;;5071540;28;20275;-83
2023/10/05 09:37:40;;;;;;;6.20;2.93;;;;;;;;;;5071698;28;20206;-83
2023/10/05 09:40:15;;;;;;;2.87;1.50;;;;;;;;;;5071427;28;20201;-83
2023/10/05 09:42:46;;;;;;;5.57;2.00;;;;;;;;;;5071078;28;20214;-82
2023/10/05 09:45:17;;;;;;;6.83;2.33;;;;;;;;;;5071521;28;20293;-83
2023/10/05 09:47:47;;;;;;;7.83;3.07;;;;;;;;;;5071982;28;20202;-83
2023/10/05 09:50:21;;;;;;;2.27;0.97;;;;;;;;;;5071043;28;20267;-83
2023/10/05 09:52:50;;;;;;;4.13;1.97;;;;;;;;;;5070968;28;20197;-82
2023/10/05 09:55:19;;;;;;;5.07;1.73;;;;;;;;;;5071503;28;20210;-82
2023/10/05 09:57:51;;;;;;;6.23;1.40;;;;;;;;;;5071373;28;20201;-83
2023/10/05 10:00:47;;;;;;;5.77;1.77;;;;;;;;;;5071329;28;20205;-82
2023/10/05 10:03:17;;;;;;;3.80;1.70;;;;;;;;;;5071045;28;20232;-82
2023/10/05 10:05:50;;;;;;;2.57;1.70;;;;;;;;;;5071286;28;20304;-83
2023/10/05 10:08:23;;;;;;;4.77;1.67;;;;;;;;;;5071774;28;20224;-83
2023/10/05 10:11:01;;;;;;;5.10;1.77;;;;;;;;;;5071074;28;20217;-82
2023/10/05 10:13:37;;;;;;;11.60;2.80;;;;;;;;;;5071325;28;20205;-83
2023/10/05 10:16:21;;;;;;;3.53;1.50;;;;;;;;;;5071475;28;20367;-83
2023/10/05 10:18:53;;;;;;;7.90;2.53;;;;;;;;;;5071022;28;20240;-83
2023/10/05 10:21:26;;;;;;;8.10;2.30;;;;;;;;;;5071261;28;20197;-83
2023/10/05 10:24:04;;;;;;;10.70;1.43;;;;;;;;;;5070994;28;20226;-82
2023/10/05 10:26:33;;;;;;;3.93;1.90;;;;;;;;;;5071478;28;20220;-83
2023/10/05 10:29:05;;;;;;;4.43;1.93;;;;;;;;;;5070771;28;20208;-85
2023/10/05 10:31:47;;;;;;;2.63;1.83;;;;;;;;;;5070715;28;20199;-83
2023/10/05 10:34:30;;;;;;;3.80;1.40;;;;;;;;;;5070966;28;20216;-83
2023/10/05 10:37:03;;;;;;;2.30;1.53;;;;;;;;;;5073772;28;20287;-83
2023/10/05 10:39:33;;;;;;;1.50;1.07;;;;;;;;;;5074593;28;20208;-83
2023/10/05 10:42:04;;;;;;;6.83;2.13;;;;;;;;;;5074608;28;20207;-83
2023/10/05 10:44:56;;;;;;;3.23;1.50;;;;;;;;;;5074638;28;20214;-82
2023/10/05 10:47:26;;;;;;;1.17;1.03;;;;;;;;;;5074293;28;20196;-83
2023/10/05 10:50:10;;;;;;;7.97;2.17;;;;;;;;;;5074459;28;20197;-83
2023/10/05 10:52:42;;;;;;;7.10;2.50;;;;;;;;;;5074142;28;20217;-83
2023/10/05 10:55:14;;;;;;;5.80;2.17;;;;;;;;;;5074283;28;20265;-82
2023/10/05 10:57:46;;;;;;;5.60;2.47;;;;;;;;;;5074069;28;20204;-82
2023/10/05 11:03:10;;;;;;;5.77;1.53;;;;;;;;;;5074563;28;20199;-83
2023/10/05 11:05:39;;;;;;;1.40;1.17;;;;;;;;;;5074147;28;20194;-82
2023/10/05 11:08:12;;;;;;;1.67;1.57;;;;;;;;;;5073883;28;20256;-82
2023/10/05 11:10:42;;;;;;;7.03;1.30;;;;;;;;;;5074356;28;20204;-83
2023/10/05 11:13:17;;;;;;;3.93;2.10;;;;;;;;;;5073948;28;20298;-82
2023/10/05 11:15:57;;;;;;;3.60;1.67;;;;;;;;;;5074025;28;20266;-83
2023/10/05 11:18:30;;;;;;;3.60;1.33;;;;;;;;;;5073764;28;20218;-82
2023/10/05 11:21:07;;;;;;;0.63;0.63;;;;;;;;;;5073743;28;20287;-83
2023/10/05 11:23:47;;;;;;;5.13;2.67;;;;;;;;;;5073585;28;20324;-83
2023/10/05 11:26:26;;;;;;;7.07;2.17;;;;;;;;;;5073996;28;20209;-82
2023/10/05 11:29:00;;;;;;;3.80;1.90;;;;;;;;;;5073497;28;20197;-83
2023/10/05 11:31:34;;;;;;;3.27;2.10;;;;;;;;;;5073941;28;20277;-83
2023/10/05 11:34:28;;;;;;;5.43;1.47;;;;;;;;;;5073208;28;20206;-83
2023/10/05 11:37:18;;;;;;;1.47;1.27;;;;;;;;;;5073486;28;20298;-82
2023/10/05 11:39:49;;;;;;;0.73;0.73;;;;;;;;;;5074046;28;20262;-83
2023/10/05 11:42:24;;;;;;;2.70;1.27;;;;;;;;;;5073579;28;20200;-83
2023/10/05 11:44:55;;;;;;;1.00;0.90;;;;;;;;;;5073363;28;20215;-83
2023/10/05 11:47:32;;;;;;;2.57;1.77;;;;;;;;;;5073235;28;20229;-82
2023/10/05 11:50:06;;;;;;;5.00;1.70;;;;;;;;;;5073844;28;20201;-83
2023/10/05 11:52:38;;;;;;;2.43;1.37;;;;;;;;;;5073517;28;20209;-83
2023/10/05 11:55:11;;;;;;;6.33;2.47;;;;;;;;;;5072788;28;20221;-84
2023/10/05 11:57:40;;;;;;;3.80;1.40;;;;;;;;;;5073639;28;20219;-83
2023/10/05 12:00:12;;;;;;;1.87;1.37;;;;;;;;;;5073284;28;20229;-82
2023/10/05 12:02:42;;;;;;;4.43;2.73;;;;;;;;;;5072739;28;20195;-81
2023/10/05 12:05:12;;;;;;;2.27;1.00;;;;;;;;;;5073014;28;20203;-81
2023/10/05 12:07:45;;;;;;;9.00;2.37;;;;;;;;;;5073191;28;20305;-83
2023/10/05 12:10:16;;;;;;;4.13;1.97;;;;;;;;;;5072900;28;20194;-83
2023/10/05 12:12:50;;;;;;;1.80;1.50;;;;;;;;;;5072787;28;20294;-82
2023/10/05 12:15:22;;;;;;;1.53;0.90;;;;;;;;;;5072912;28;20260;-83
2023/10/05 12:17:51;;;;;;;7.70;2.37;;;;;;;;;;5073477;28;20294;-82
2023/10/05 12:20:20;;;;;;;2.10;1.00;;;;;;;;;;5073076;28;20245;-82
2023/10/05 12:22:50;;;;;;;2.20;1.07;;;;;;;;;;5072085;28;20258;-82
2023/10/05 12:25:27;;;;;;;3.40;2.07;;;;;;;;;;5072847;28;20203;-82
2023/10/05 12:27:56;;;;;;;15.67;1.80;;;;;;;;;;5073185;28;20209;-83
2023/10/05 12:30:25;;;;;;;2.83;1.40;;;;;;;;;;5072528;28;20286;-83
2023/10/05 12:32:55;;;;;;;2.73;1.23;;;;;;;;;;5072329;28;20205;-82
2023/10/05 12:35:28;;;;;;;4.37;2.10;;;;;;;;;;5072776;28;20204;-82
2023/10/05 12:37:58;;;;;;;2.43;2.13;;;;;;;;;;5072570;28;20207;-83
2023/10/05 12:40:33;;;;;;;5.80;1.00;;;;;;;;;;5072498;28;20276;-82
2023/10/05 12:43:03;;;;;;;4.43;1.60;;;;;;;;;;5072757;28;20233;-82
2023/10/05 12:45:46;;;;;;;2.93;1.47;;;;;;;;;;5072806;28;20227;-82
2023/10/05 12:48:15;;;;;;;2.67;1.77;;;;;;;;;;5072975;28;20201;-82
2023/10/05 12:50:44;;;;;;;3.33;1.27;;;;;;;;;;5071879;28;20232;-82
2023/10/05 12:53:13;;;;;;;5.23;1.83;;;;;;;;;;5071972;28;20198;-82
2023/10/05 12:55:43;;;;;;;5.33;1.57;;;;;;;;;;5072266;28;20229;-82
2023/10/05 12:58:11;;;;;;;2.77;1.70;;;;;;;;;;5072122;28;20195;-83
2023/10/05 13:00:43;;;;;;;2.67;2.47;;;;;;;;;;5071139;28;20201;-82
2023/10/05 13:03:12;;;;;;;1.20;1.03;;;;;;;;;;5071892;28;20208;-83
2023/10/05 13:05:45;;;;;;;1.80;1.13;;;;;;;;;;5071919;28;20319;-84
2023/10/05 13:08:15;;;;;;;1.00;0.90;;;;;;;;;;5072377;28;20204;-83
2023/10/05 13:10:46;;;;;;;2.47;2.00;;;;;;;;;;5071798;28;20231;-83
2023/10/05 13:13:18;;;;;;;2.57;1.07;;;;;;;;;;5072136;28;20201;-83
2023/10/05 13:15:47;;;;;;;7.70;3.70;;;;;;;;;;5072343;28;22144;-83
2023/10/05 13:18:25;;;;;;;4.73;3.53;;;;;;;;;;5071337;28;20341;-83
2023/10/05 13:20:55;;;;;;;3.10;1.40;;;;;;;;;;5071484;28;20213;-85
2023/10/05 13:23:24;;;;;;;5.60;3.10;;;;;;;;;;5071201;28;20335;-85
2023/10/05 13:25:56;;;;;;;2.33;1.13;;;;;;;;;;5071896;28;20197;-85
2023/10/05 13:28:24;;;;;;;4.60;1.87;;;;;;;;;;5071275;28;20367;-85
2023/10/05 13:30:55;;;;;;;2.60;1.50;;;;;;;;;;5071982;28;20244;-85
2023/10/05 13:33:28;;;;;;;1.97;1.00;;;;;;;;;;5071709;28;20238;-85
2023/10/05 13:35:58;;;;;;;0.80;0.80;;;;;;;;;;5071852;28;20240;-86
2023/10/05 13:38:28;;;;;;;4.97;1.53;;;;;;;;;;5071654;28;20211;-85
2023/10/05 13:41:13;;;;;;;2.77;1.47;;;;;;;;;;5072057;28;20202;-85
2023/10/05 13:43:44;;;;;;;6.00;1.20;;;;;;;;;;5071964;28;20283;-86
2023/10/05 13:46:16;;;;;;;2.00;0.80;;;;;;;;;;5071547;28;20192;-85
2023/10/05 13:48:45;;;;;;;5.53;1.60;;;;;;;;;;5071817;28;20211;-85
2023/10/05 13:51:16;;;;;;;1.00;0.90;;;;;;;;;;5071847;28;20213;-85
2023/10/05 13:53:45;;;;;;;1.80;0.83;;;;;;;;;;5072046;28;20217;-85
2023/10/05 13:56:16;;;;;;;3.50;1.67;;;;;;;;;;5071262;28;20228;-86
2023/10/05 13:58:47;;;;;;;4.23;1.53;;;;;;;;;;5072174;28;20216;-86
2023/10/05 14:01:16;;;;;;;1.60;0.90;;;;;;;;;;5071790;28;20210;-85
2023/10/05 14:03:47;;;;;;;1.93;1.03;;;;;;;;;;5071912;28;20290;-85
2023/10/05 14:06:17;;;;;;;4.43;1.10;;;;;;;;;;5070918;28;20199;-85
2023/10/05 14:08:46;;;;;;;6.70;1.83;;;;;;;;;;5071468;28;20297;-85
2023/10/05 14:11:16;;;;;;;2.50;1.37;;;;;;;;;;5072625;28;20213;-86
2023/10/05 14:13:44;;;;;;;2.67;0.97;;;;;;;;;;5075446;28;20215;-85
2023/10/05 14:16:13;;;;;;;2.67;1.03;;;;;;;;;;5074608;28;20215;-85
2023/10/05 14:18:44;;;;;;;4.10;1.10;;;;;;;;;;5074816;28;20247;-85
2023/10/05 14:21:16;;;;;;;5.17;1.23;;;;;;;;;;5075068;28;20240;-84
2023/10/05 14:23:45;;;;;;;6.07;0.90;;;;;;;;;;5074419;28;20240;-85
2023/10/05 14:26:14;;;;;;;1.87;0.87;;;;;;;;;;5074665;28;20227;-85
2023/10/05 14:28:44;;;;;;;3.13;1.20;;;;;;;;;;5074524;28;20197;-85
2023/10/05 14:31:12;;;;;;;8.43;2.03;;;;;;;;;;5074939;28;20215;-84
2023/10/05 14:33:41;;;;;;;4.30;1.60;;;;;;;;;;5074531;28;20209;-84
2023/10/05 14:36:11;;;;;;;4.87;1.47;;;;;;;;;;5074929;28;20231;-86
2023/10/05 14:38:41;;;;;;;3.63;2.07;;;;;;;;;;5075445;28;20215;-85
2023/10/05 14:41:11;;;;;;;5.87;2.00;;;;;;;;;;5075044;28;20207;-86
2023/10/05 14:43:44;;;;;;;6.43;2.07;;;;;;;;;;5074664;28;20215;-85
2023/10/05 14:46:21;;;;;;;1.90;1.37;;;;;;;;;;5074652;28;20208;-85
2023/10/05 14:48:50;;;;;;;0.40;0.40;;;;;;;;;;5075096;28;20205;-85
2023/10/05 14:51:19;;;;;;;1.10;0.93;;;;;;;;;;5074536;28;20203;-85
2023/10/05 14:53:49;;;;;;;20.40;1.43;;;;;;;;;;5073837;28;20219;-85
2023/10/05 14:56:17;;;;;;;1.50;0.63;;;;;;;;;;5074350;28;20196;-85
2023/10/05 14:58:47;;;;;;;5.53;2.23;;;;;;;;;;5074506;28;20242;-85
2023/10/05 15:01:19;;;;;;;3.20;2.00;;;;;;;;;;5074378;28;20239;-85
2023/10/05 15:03:49;;;;;;;1.67;1.17;;;;;;;;;;5073832;28;20216;-85
2023/10/05 15:06:18;;;;;;;4.50;1.30;;;;;;;;;;5074399;28;20203;-85
2023/10/05 15:08:47;;;;;;;3.23;1.33;;;;;;;;;;5074659;28;20288;-86
2023/10/05 15:11:15;;;;;;;1.30;1.17;;;;;;;;;;5073878;28;20235;-86
2023/10/05 15:13:44;;;;;;;1.53;1.27;;;;;;;;;;5074411;28;20217;-85